Time;durP1;ratioP1;P1;durP2;ratioP2;P2;SDS_P1;SDS_P2;PMS_P1;PMS_P2;Temp;Humidity;BMP_temperature;BMP_pressure;BME280_temperature;BME280_humidity;BME280_pressure;Samples;Min_cycle;Max_cycle;Signal;HPM_P1;HPM_P2
2022/08/06 00:01:18;;;;;;;;;;;15.50;72.80;;;;;;5046077;28;19920;-84
2022/08/06 00:03:56;;;;;;;;;;;15.50;72.80;;;;;;5058359;28;19919;-84
2022/08/06 00:09:51;;;;;;;;;;;15.40;73.40;;;;;;5019969;28;19913;-84
2022/08/06 00:12:57;;;;;;;;;;;15.20;73.80;;;;;;5009790;28;19979;-84
2022/08/06 00:15:43;;;;;;;;;;;15.10;74.60;;;;;;5008665;28;19955;-84
2022/08/06 00:18:16;;;;;;;;;;;15.10;74.20;;;;;;5033747;28;20004;-84
2022/08/06 00:20:42;;;;;;;;;;;15.10;74.60;;;;;;5032371;22;19979;-78
2022/08/06 00:23:07;;;;;;;;;;;15.00;74.80;;;;;;5013122;28;19917;-78
2022/08/06 00:25:33;;;;;;;;;;;15.00;75.10;;;;;;5012000;28;19920;-79
2022/08/06 00:27:58;;;;;;;;;;;14.90;75.20;;;;;;5015020;28;20012;-79
2022/08/06 00:30:24;;;;;;;;;;;14.80;75.70;;;;;;5014810;28;19920;-76
2022/08/06 00:32:51;;;;;;;;;;;14.80;75.90;;;;;;5017484;28;19921;-77
2022/08/06 00:35:17;;;;;;;;;;;14.90;75.70;;;;;;5012451;28;20278;-79
2022/08/06 00:37:42;;;;;;;;;;;14.70;76.30;;;;;;5001289;28;19920;-78
2022/08/06 00:40:08;;;;;;;;;;;14.60;76.30;;;;;;5007555;28;20387;-78
2022/08/06 00:42:34;;;;;;;;;;;14.60;76.40;;;;;;5006398;28;19921;-79
2022/08/06 00:45:00;;;;;;;;;;;14.70;76.10;;;;;;5016996;28;20004;-79
2022/08/06 00:47:26;;;;;;;;;;;14.70;75.90;;;;;;5004421;28;20637;-77
2022/08/06 00:49:51;;;;;;;;;;;14.60;76.00;;;;;;5015515;28;19924;-80
2022/08/06 00:52:17;;;;;;;;;;;14.60;75.80;;;;;;5008079;28;19921;-78
2022/08/06 00:54:42;;;;;;;;;;;14.50;76.20;;;;;;5004991;28;19921;-78
2022/08/06 00:57:08;;;;;;;;;;;14.50;76.40;;;;;;5003448;28;20294;-79
2022/08/06 00:59:33;;;;;;;;;;;14.50;76.70;;;;;;5014216;28;19920;-78
2022/08/06 01:01:59;;;;;;;;;;;14.50;77.40;;;;;;5014319;28;20337;-77
2022/08/06 01:04:24;;;;;;;;;;;14.50;77.10;;;;;;5012338;28;19945;-78
2022/08/06 01:06:49;;;;;;;;;;;14.40;77.80;;;;;;5019975;28;19913;-78
2022/08/06 01:09:15;;;;;;;;;;;14.40;77.80;;;;;;5017162;28;20373;-78
2022/08/06 01:11:40;;;;;;;;;;;14.50;77.40;;;;;;5014681;28;20313;-78
2022/08/06 01:14:06;;;;;;;;;;;14.50;76.90;;;;;;5010553;28;19920;-79
2022/08/06 01:16:38;;;;;;;;;;;14.40;76.90;;;;;;5021126;28;19914;-78
2022/08/06 01:19:22;;;;;;;;;;;14.20;76.90;;;;;;5010343;28;19913;-79
2022/08/06 01:22:06;;;;;;;;;;;14.10;77.30;;;;;;4999796;28;20417;-77
2022/08/06 01:24:34;;;;;;;;;;;14.10;77.40;;;;;;5010517;28;19914;-77
2022/08/06 01:27:15;;;;;;;;;;;14.20;77.10;;;;;;5013242;28;19914;-79
2022/08/06 01:29:42;;;;;;;;;;;14.10;77.60;;;;;;5015389;28;19945;-79
2022/08/06 01:32:11;;;;;;;;;;;14.00;77.80;;;;;;5024279;28;19986;-77
2022/08/06 01:34:38;;;;;;;;;;;14.00;78.30;;;;;;5015469;28;19913;-78
2022/08/06 01:37:10;;;;;;;;;;;13.90;78.40;;;;;;5015121;28;20378;-78
2022/08/06 01:39:37;;;;;;;;;;;14.00;78.40;;;;;;5010451;28;19925;-79
2022/08/06 01:42:03;;;;;;;;;;;14.00;78.10;;;;;;5013814;28;19917;-78
2022/08/06 01:44:31;;;;;;;;;;;14.00;78.00;;;;;;4997843;28;19917;-78
2022/08/06 01:46:59;;;;;;;;;;;14.00;78.00;;;;;;5010427;28;19921;-77
2022/08/06 01:49:26;;;;;;;;;;;13.90;78.30;;;;;;5008946;28;19921;-78
2022/08/06 01:51:53;;;;;;;;;;;13.80;78.40;;;;;;5012145;28;19925;-78
2022/08/06 01:54:19;;;;;;;;;;;13.70;78.50;;;;;;5006193;28;22366;-79
2022/08/06 01:56:47;;;;;;;;;;;13.80;78.70;;;;;;5009477;28;19917;-76
2022/08/06 01:59:16;;;;;;;;;;;13.80;78.60;;;;;;5004797;28;19915;-79
2022/08/06 02:01:43;;;;;;;;;;;13.90;78.40;;;;;;5013121;28;20377;-79
2022/08/06 02:04:10;;;;;;;;;;;13.80;78.80;;;;;;5004640;28;20603;-78
2022/08/06 02:06:37;;;;;;;;;;;13.80;78.90;;;;;;5014423;28;20106;-78
2022/08/06 02:09:05;;;;;;;;;;;13.90;78.50;;;;;;5014307;28;19913;-79
2022/08/06 02:11:32;;;;;;;;;;;13.90;78.40;;;;;;5011534;28;20329;-77
2022/08/06 02:13:59;;;;;;;;;;;13.90;78.10;;;;;;5013965;28;19961;-78
2022/08/06 02:16:27;;;;;;;;;;;13.80;78.30;;;;;;5001618;28;19926;-79
2022/08/06 02:18:53;;;;;;;;;;;13.70;78.60;;;;;;5003121;28;20297;-80
2022/08/06 02:21:20;;;;;;;;;;;13.60;79.10;;;;;;5003663;28;20356;-78
2022/08/06 02:23:46;;;;;;;;;;;13.60;78.90;;;;;;5021044;28;19913;-77
2022/08/06 02:26:13;;;;;;;;;;;13.60;79.30;;;;;;5023679;28;19913;-78
2022/08/06 02:28:41;;;;;;;;;;;13.60;79.70;;;;;;5017257;28;19917;-79
2022/08/06 02:31:06;;;;;;;;;;;13.50;80.10;;;;;;5000185;28;19927;-78
2022/08/06 02:33:32;;;;;;;;;;;13.50;80.90;;;;;;5007215;28;19914;-78
2022/08/06 02:36:04;;;;;;;;;;;13.60;80.30;;;;;;4999686;28;19933;-79
2022/08/06 02:38:38;;;;;;;;;;;13.60;80.50;;;;;;5008824;28;20378;-78
2022/08/06 02:41:27;;;;;;;;;;;13.70;80.60;;;;;;5014115;28;19917;-78
2022/08/06 02:43:55;;;;;;;;;;;13.60;81.00;;;;;;5010037;28;19913;-79
2022/08/06 02:46:25;;;;;;;;;;;13.80;80.10;;;;;;5015215;28;19913;-79
2022/08/06 02:48:58;;;;;;;;;;;13.80;79.70;;;;;;5005911;28;19999;-78
2022/08/06 02:51:28;;;;;;;;;;;13.80;79.20;;;;;;5009044;28;19924;-78
2022/08/06 02:54:04;;;;;;;;;;;13.80;78.80;;;;;;5012189;28;19913;-79
2022/08/06 02:56:30;;;;;;;;;;;13.70;78.60;;;;;;5020081;28;20290;-79
2022/08/06 02:58:57;;;;;;;;;;;13.70;79.10;;;;;;5011616;28;20635;-79
2022/08/06 03:01:27;;;;;;;;;;;13.60;79.00;;;;;;5015080;28;20123;-79
2022/08/06 03:03:54;;;;;;;;;;;13.60;79.00;;;;;;5011552;28;19913;-79
2022/08/06 03:06:20;;;;;;;;;;;13.50;79.40;;;;;;5008768;28;20271;-78
2022/08/06 03:08:46;;;;;;;;;;;13.50;79.30;;;;;;5010661;28;19913;-78
2022/08/06 03:11:12;;;;;;;;;;;13.50;79.30;;;;;;5012786;28;19917;-78
2022/08/06 03:13:38;;;;;;;;;;;13.40;79.40;;;;;;5007779;28;20286;-77
2022/08/06 03:16:04;;;;;;;;;;;13.30;79.40;;;;;;5007632;28;20285;-77
2022/08/06 03:18:30;;;;;;;;;;;13.30;79.60;;;;;;5006657;28;19920;-79
2022/08/06 03:20:57;;;;;;;;;;;13.40;79.70;;;;;;5017757;28;20585;-78
2022/08/06 03:23:23;;;;;;;;;;;13.30;80.00;;;;;;5009864;28;19920;-79
2022/08/06 03:25:49;;;;;;;;;;;13.30;80.20;;;;;;5005920;28;19957;-79
2022/08/06 03:28:15;;;;;;;;;;;13.30;80.80;;;;;;5008835;28;19913;-78
2022/08/06 03:30:41;;;;;;;;;;;13.30;81.10;;;;;;5005249;28;19914;-79
2022/08/06 03:33:09;;;;;;;;;;;13.20;81.30;;;;;;5007917;28;19924;-79
2022/08/06 03:35:35;;;;;;;;;;;13.30;80.60;;;;;;5009562;28;20287;-78
2022/08/06 03:38:01;;;;;;;;;;;13.30;80.50;;;;;;5012372;28;19940;-79
2022/08/06 03:40:27;;;;;;;;;;;13.30;79.60;;;;;;5009162;28;19945;-78
2022/08/06 03:42:53;;;;;;;;;;;13.30;79.40;;;;;;4996496;28;20307;-79
2022/08/06 03:45:19;;;;;;;;;;;13.20;79.50;;;;;;5007654;28;20005;-78
2022/08/06 03:47:47;;;;;;;;;;;13.20;79.80;;;;;;5010389;28;19966;-79
2022/08/06 03:50:18;;;;;;;;;;;13.10;79.60;;;;;;5019669;28;19913;-78
2022/08/06 03:52:48;;;;;;;;;;;13.20;80.00;;;;;;5012554;28;19933;-78
2022/08/06 03:55:15;;;;;;;;;;;13.20;79.90;;;;;;5012699;28;19914;-78
2022/08/06 03:57:43;;;;;;;;;;;13.10;80.60;;;;;;5003372;28;19914;-79
2022/08/06 04:00:10;;;;;;;;;;;13.00;80.90;;;;;;5007228;28;19917;-79
2022/08/06 04:02:50;;;;;;;;;;;13.10;80.70;;;;;;5004812;28;19968;-79
2022/08/06 04:05:20;;;;;;;;;;;13.10;80.60;;;;;;5001639;28;19976;-79
2022/08/06 04:07:46;;;;;;;;;;;13.00;80.90;;;;;;5036831;28;19941;-77
2022/08/06 04:10:12;;;;;;;;;;;13.10;80.80;;;;;;5011298;28;19914;-77
2022/08/06 04:12:38;;;;;;;;;;;13.10;80.70;;;;;;5010250;28;19925;-77
2022/08/06 04:15:04;;;;;;;;;;;13.10;80.80;;;;;;5000073;28;20173;-78
2022/08/06 04:17:31;;;;;;;;;;;13.10;80.90;;;;;;5007673;28;20051;-78
2022/08/06 04:19:58;;;;;;;;;;;13.00;80.80;;;;;;5003208;28;19922;-79
2022/08/06 04:22:23;;;;;;;;;;;13.00;81.20;;;;;;5015578;28;19953;-79
2022/08/06 04:24:49;;;;;;;;;;;12.90;81.60;;;;;;5006452;28;19921;-79
2022/08/06 04:27:15;;;;;;;;;;;13.10;81.40;;;;;;5018372;28;20408;-78
2022/08/06 04:29:41;;;;;;;;;;;13.10;81.80;;;;;;5010793;28;19917;-78
2022/08/06 04:32:07;;;;;;;;;;;13.10;81.80;;;;;;5012667;28;20020;-79
2022/08/06 04:34:34;;;;;;;;;;;13.10;81.40;;;;;;5013345;28;19956;-79
2022/08/06 04:37:00;;;;;;;;;;;13.10;81.20;;;;;;5005663;28;20716;-79
2022/08/06 04:39:26;;;;;;;;;;;13.20;80.90;;;;;;4999064;28;19914;-79
2022/08/06 04:41:52;;;;;;;;;;;13.20;81.00;;;;;;5007798;28;19921;-80
2022/08/06 04:44:17;;;;;;;;;;;13.30;81.00;;;;;;5013676;28;19919;-80
2022/08/06 04:46:48;;;;;;;;;;;13.30;81.20;;;;;;5014781;28;19913;-78
2022/08/06 04:49:16;;;;;;;;;;;13.30;81.20;;;;;;5011539;28;19914;-79
2022/08/06 04:51:45;;;;;;;;;;;13.40;81.20;;;;;;5005529;28;20023;-79
2022/08/06 04:54:11;;;;;;;;;;;13.40;80.80;;;;;;5012525;28;19913;-78
2022/08/06 04:56:37;;;;;;;;;;;13.50;80.70;;;;;;5006815;28;19928;-79
2022/08/06 04:59:02;;;;;;;;;;;13.60;80.90;;;;;;5010114;28;19976;-80
2022/08/06 05:01:28;;;;;;;;;;;13.50;81.00;;;;;;5012934;28;20008;-79
2022/08/06 05:03:53;;;;;;;;;;;13.50;81.30;;;;;;5006539;28;19914;-78
2022/08/06 05:06:23;;;;;;;;;;;13.50;81.90;;;;;;4995930;28;20442;-78
2022/08/06 05:08:51;;;;;;;;;;;13.60;82.30;;;;;;5011424;28;19925;-79
2022/08/06 05:11:19;;;;;;;;;;;13.60;81.80;;;;;;5005302;28;19918;-78
2022/08/06 05:13:46;;;;;;;;;;;13.70;82.00;;;;;;5003662;28;19913;-79
2022/08/06 05:16:12;;;;;;;;;;;13.80;80.90;;;;;;5008560;28;19913;-78
2022/08/06 05:18:40;;;;;;;;;;;13.90;80.40;;;;;;5038747;28;19956;-76
2022/08/06 05:21:08;;;;;;;;;;;14.00;80.90;;;;;;5006893;28;19917;-80
2022/08/06 05:23:41;;;;;;;;;;;14.00;79.90;;;;;;5005318;28;19958;-78
2022/08/06 05:26:07;;;;;;;;;;;14.00;79.70;;;;;;4999302;28;19917;-78
2022/08/06 05:28:33;;;;;;;;;;;14.10;79.20;;;;;;5012176;28;19913;-78
2022/08/06 05:30:58;;;;;;;;;;;14.20;79.00;;;;;;5011447;28;19918;-77
2022/08/06 05:33:25;;;;;;;;;;;14.20;79.70;;;;;;5007021;28;19913;-78
2022/08/06 05:35:50;;;;;;;;;;;14.30;80.40;;;;;;4999621;28;19976;-77
2022/08/06 05:38:16;;;;;;;;;;;14.40;79.40;;;;;;5010332;28;20373;-78
2022/08/06 05:40:41;;;;;;;;;;;14.40;78.80;;;;;;5006954;28;20416;-79
2022/08/06 05:43:06;;;;;;;;;;;14.40;77.70;;;;;;5011075;28;19913;-78
2022/08/06 05:45:33;;;;;;;;;;;14.50;76.80;;;;;;5010769;28;19996;-79
2022/08/06 05:48:00;;;;;;;;;;;14.50;77.30;;;;;;5006998;28;20453;-80
2022/08/06 05:50:28;;;;;;;;;;;14.60;76.60;;;;;;5013032;28;19929;-78
2022/08/06 05:52:56;;;;;;;;;;;14.60;76.70;;;;;;5007114;28;19922;-78
2022/08/06 05:55:24;;;;;;;;;;;14.60;76.90;;;;;;5001674;28;19914;-79
2022/08/06 05:57:53;;;;;;;;;;;14.70;77.30;;;;;;5006929;28;19914;-79
2022/08/06 06:00:20;;;;;;;;;;;14.80;76.70;;;;;;5005086;28;20385;-79
2022/08/06 06:02:47;;;;;;;;;;;14.90;76.70;;;;;;5007245;28;20297;-76
2022/08/06 06:05:13;;;;;;;;;;;14.90;76.60;;;;;;4998389;28;20295;-79
2022/08/06 06:07:39;;;;;;;;;;;15.00;76.60;;;;;;5018972;28;19924;-79
2022/08/06 06:10:05;;;;;;;;;;;15.00;76.20;;;;;;5013434;28;19967;-80
2022/08/06 06:12:31;;;;;;;;;;;15.10;76.60;;;;;;5007459;28;20275;-78
2022/08/06 06:14:57;;;;;;;;;;;15.20;75.80;;;;;;5007136;28;19925;-78
2022/08/06 06:17:42;;;;;;;;;;;15.30;75.20;;;;;;5004328;28;19917;-79
2022/08/06 06:20:10;;;;;;;;;;;15.50;74.20;;;;;;5058376;23;19990;-77
2022/08/06 06:22:41;;;;;;;;;;;15.80;74.80;;;;;;5066763;28;19913;-78
2022/08/06 06:25:14;;;;;;;;;;;16.10;73.50;;;;;;5064143;28;19913;-76
2022/08/06 06:27:46;;;;;;;;;;;16.50;71.10;;;;;;5067443;28;19913;-78
2022/08/06 06:30:26;;;;;;;;;;;16.90;70.50;;;;;;5063292;28;19935;-78
2022/08/06 06:32:55;;;;;;;;;;;17.10;69.90;;;;;;5050982;28;19952;-77
2022/08/06 06:35:37;;;;;;;;;;;17.00;68.90;;;;;;5047036;28;19917;-77
2022/08/06 06:38:18;;;;;;;;;;;16.80;69.40;;;;;;5048209;28;20004;-78
2022/08/06 06:40:48;;;;;;;;;;;16.80;69.60;;;;;;5051250;28;19919;-77
2022/08/06 06:43:40;;;;;;;;;;;16.80;68.10;;;;;;5045304;28;19920;-77
2022/08/06 06:46:12;;;;;;;;;;;16.60;69.00;;;;;;5046298;28;19920;-78
2022/08/06 06:48:44;;;;;;;;;;;16.50;68.50;;;;;;5050284;28;20277;-78
2022/08/06 06:51:11;;;;;;;;;;;16.50;69.00;;;;;;5045423;28;19981;-78
2022/08/06 06:53:40;;;;;;;;;;;16.60;68.70;;;;;;5054935;28;19916;-77
2022/08/06 06:56:07;;;;;;;;;;;16.40;70.20;;;;;;5049215;28;20378;-77
2022/08/06 06:58:36;;;;;;;;;;;16.30;70.20;;;;;;5051756;28;19913;-77
2022/08/06 07:01:05;;;;;;;;;;;16.40;69.60;;;;;;5045413;28;19917;-78
2022/08/06 07:03:33;;;;;;;;;;;16.40;70.10;;;;;;5058161;28;20456;-78
2022/08/06 07:05:59;;;;;;;;;;;16.40;69.60;;;;;;5048820;28;19913;-77
2022/08/06 07:08:25;;;;;;;;;;;16.40;69.70;;;;;;5049720;28;19919;-77
2022/08/06 07:10:51;;;;;;;;;;;16.50;69.00;;;;;;5049632;28;20014;-78
2022/08/06 07:13:19;;;;;;;;;;;16.50;69.80;;;;;;5050237;28;19913;-78
2022/08/06 07:15:44;;;;;;;;;;;16.50;69.90;;;;;;5049676;28;19913;-77
2022/08/06 07:18:11;;;;;;;;;;;16.50;69.90;;;;;;5055583;28;19921;-78
2022/08/06 07:20:37;;;;;;;;;;;16.60;70.40;;;;;;5063787;28;19966;-77
2022/08/06 07:23:04;;;;;;;;;;;16.60;70.10;;;;;;5067609;28;19912;-78
2022/08/06 07:25:33;;;;;;;;;;;16.60;70.40;;;;;;5068304;28;19912;-77
2022/08/06 07:27:59;;;;;;;;;;;16.70;70.00;;;;;;5055033;28;19912;-77
2022/08/06 07:30:25;;;;;;;;;;;17.00;67.90;;;;;;5070731;28;19962;-78
2022/08/06 07:32:51;;;;;;;;;;;17.00;67.50;;;;;;5074262;28;20011;-80
2022/08/06 07:35:17;;;;;;;;;;;17.10;66.00;;;;;;5068073;28;19912;-80
2022/08/06 07:38:03;;;;;;;;;;;17.30;64.50;;;;;;5065820;28;19919;-79
2022/08/06 07:40:35;;;;;;;;;;;17.30;65.60;;;;;;5071244;28;19916;-80
2022/08/06 07:43:13;;;;;;;;;;;17.10;66.90;;;;;;5068256;28;19923;-79
2022/08/06 07:45:38;;;;;;;;;;;17.00;67.50;;;;;;5067379;28;19912;-79
2022/08/06 07:48:06;;;;;;;;;;;17.10;64.00;;;;;;5071357;28;19942;-79
2022/08/06 07:50:32;;;;;;;;;;;17.10;64.90;;;;;;5076728;28;20290;-79
2022/08/06 07:52:58;;;;;;;;;;;17.30;64.70;;;;;;5071887;28;19942;-78
2022/08/06 07:55:25;;;;;;;;;;;17.20;65.90;;;;;;5076588;28;20387;-79
2022/08/06 07:57:52;;;;;;;;;;;17.10;65.60;;;;;;5073604;28;19923;-79
2022/08/06 08:00:17;;;;;;;;;;;17.10;66.10;;;;;;5071610;28;20027;-80
2022/08/06 08:06:17;;;;;;;;;;;17.20;65.30;;;;;;5068632;28;20049;-78
2022/08/06 08:08:14;;;;;;;;;;;17.10;64.90;;;;;;5066526;28;19958;-79
2022/08/06 08:10:40;;;;;;;;;;;17.20;65.20;;;;;;5056865;28;20386;-78
2022/08/06 08:13:05;;;;;;;;;;;17.50;64.20;;;;;;5057273;28;19916;-78
2022/08/06 08:15:31;;;;;;;;;;;17.50;64.80;;;;;;5077537;28;19912;-79
2022/08/06 08:17:57;;;;;;;;;;;17.50;63.10;;;;;;5071786;28;19908;-78
2022/08/06 08:20:23;;;;;;;;;;;17.60;60.70;;;;;;5063328;28;19920;-79
2022/08/06 08:22:49;;;;;;;;;;;17.50;62.30;;;;;;5064818;28;19951;-79
2022/08/06 08:25:14;;;;;;;;;;;17.50;62.30;;;;;;5066418;28;19956;-79
2022/08/06 08:27:39;;;;;;;;;;;17.60;61.80;;;;;;5066218;28;19939;-79
2022/08/06 08:30:05;;;;;;;;;;;17.80;60.60;;;;;;5052161;28;19912;-80
2022/08/06 08:32:31;;;;;;;;;;;17.70;61.80;;;;;;5090316;28;19917;-77
2022/08/06 08:34:56;;;;;;;;;;;18.00;59.40;;;;;;5058598;28;19912;-79
2022/08/06 08:37:22;;;;;;;;;;;18.00;59.40;;;;;;5045372;28;19913;-79
2022/08/06 08:39:48;;;;;;;;;;;17.90;60.10;;;;;;5067126;28;19912;-78
2022/08/06 08:42:17;;;;;;;;;;;18.20;59.20;;;;;;5070822;28;19938;-79
2022/08/06 08:44:42;;;;;;;;;;;18.20;59.30;;;;;;5072059;28;20005;-79
2022/08/06 08:47:09;;;;;;;;;;;18.50;58.50;;;;;;5070265;28;19948;-79
2022/08/06 08:49:34;;;;;;;;;;;18.40;58.00;;;;;;5068310;28;19931;-79
2022/08/06 08:52:01;;;;;;;;;;;18.30;59.10;;;;;;5075562;28;19917;-80
2022/08/06 08:54:30;;;;;;;;;;;18.10;59.70;;;;;;5074633;28;19912;-79
2022/08/06 08:57:01;;;;;;;;;;;18.20;57.00;;;;;;5058038;28;19966;-81
2022/08/06 08:59:27;;;;;;;;;;;18.20;59.20;;;;;;5075842;28;20340;-81
2022/08/06 09:01:52;;;;;;;;;;;18.10;58.20;;;;;;5074577;28;19913;-81
2022/08/06 09:04:18;;;;;;;;;;;18.00;58.20;;;;;;5051586;28;19948;-80
2022/08/06 09:06:44;;;;;;;;;;;18.20;55.80;;;;;;5054716;28;19920;-78
2022/08/06 09:09:10;;;;;;;;;;;18.50;52.10;;;;;;5086762;28;19932;-80
2022/08/06 09:11:36;;;;;;;;;;;18.60;52.50;;;;;;5068532;28;19916;-79
2022/08/06 09:14:02;;;;;;;;;;;18.60;54.90;;;;;;5060072;28;19923;-82
2022/08/06 09:16:28;;;;;;;;;;;18.60;55.20;;;;;;5057978;28;19925;-80
2022/08/06 09:18:54;;;;;;;;;;;18.90;54.00;;;;;;5071384;28;19912;-80
2022/08/06 09:21:19;;;;;;;;;;;18.80;54.00;;;;;;5087467;28;19938;-80
2022/08/06 09:23:45;;;;;;;;;;;18.80;55.10;;;;;;5074373;28;19913;-82
2022/08/06 09:26:10;;;;;;;;;;;18.80;53.50;;;;;;5056865;28;19963;-80
2022/08/06 09:28:37;;;;;;;;;;;18.70;52.50;;;;;;5052910;28;20007;-81
2022/08/06 09:31:05;;;;;;;;;;;18.50;54.60;;;;;;5075122;28;19913;-82
2022/08/06 09:33:31;;;;;;;;;;;18.50;55.10;;;;;;5060563;28;20382;-80
2022/08/06 09:35:58;;;;;;;;;;;18.60;54.80;;;;;;5054705;28;19966;-80
2022/08/06 09:38:24;;;;;;;;;;;19.00;51.70;;;;;;5089042;28;19909;-80
2022/08/06 09:41:03;;;;;;;;;;;19.30;50.70;;;;;;5072302;28;19928;-79
2022/08/06 09:43:28;;;;;;;;;;;19.40;49.80;;;;;;5097322;28;19959;-79
2022/08/06 09:45:54;;;;;;;;;;;19.40;49.70;;;;;;5051223;28;19912;-79
2022/08/06 09:48:19;;;;;;;;;;;19.20;50.40;;;;;;5077273;28;19917;-82
2022/08/06 09:50:45;;;;;;;;;;;19.00;50.00;;;;;;5071751;28;20007;-79
2022/08/06 09:53:11;;;;;;;;;;;19.10;49.20;;;;;;5054086;28;19962;-78
2022/08/06 09:55:37;;;;;;;;;;;19.10;47.80;;;;;;5073643;28;19935;-78
2022/08/06 09:58:03;;;;;;;;;;;19.00;48.00;;;;;;5058809;28;20438;-80
2022/08/06 10:00:30;;;;;;;;;;;19.00;48.00;;;;;;5079601;28;19937;-80
2022/08/06 10:02:56;;;;;;;;;;;19.10;49.00;;;;;;5080872;28;19915;-79
2022/08/06 10:05:22;;;;;;;;;;;19.00;50.40;;;;;;5087381;28;19951;-80
2022/08/06 10:08:00;;;;;;;;;;;19.10;51.10;;;;;;5088280;28;19913;-79
2022/08/06 10:10:44;;;;;;;;;;;19.00;49.90;;;;;;5065454;28;19924;-79
2022/08/06 10:13:13;;;;;;;;;;;18.80;52.20;;;;;;5084994;28;19921;-80
2022/08/06 10:15:39;;;;;;;;;;;18.80;51.90;;;;;;5061687;28;19951;-80
2022/08/06 10:18:04;;;;;;;;;;;18.80;50.80;;;;;;5055881;28;19951;-79
2022/08/06 10:20:30;;;;;;;;;;;18.80;49.10;;;;;;5059757;28;19928;-78
2022/08/06 10:22:59;;;;;;;;;;;18.90;48.20;;;;;;5070659;28;19999;-79
2022/08/06 10:25:25;;;;;;;;;;;19.10;48.40;;;;;;5074207;28;20372;-80
2022/08/06 10:27:53;;;;;;;;;;;19.10;51.10;;;;;;5075038;28;19917;-81
2022/08/06 10:30:18;;;;;;;;;;;19.20;48.80;;;;;;5058874;28;20413;-81
2022/08/06 10:32:48;;;;;;;;;;;19.40;47.00;;;;;;5065951;28;19992;-81
2022/08/06 10:35:18;;;;;;;;;;;19.30;47.40;;;;;;5055345;28;19966;-81
2022/08/06 10:37:45;;;;;;;;;;;19.40;47.70;;;;;;5059841;28;19912;-81
2022/08/06 10:40:12;;;;;;;;;;;19.40;46.70;;;;;;5066762;28;19920;-83
2022/08/06 10:42:38;;;;;;;;;;;19.50;47.00;;;;;;5049013;28;19917;-81
2022/08/06 10:45:05;;;;;;;;;;;19.50;46.70;;;;;;5068454;28;19919;-82
2022/08/06 10:47:32;;;;;;;;;;;19.40;50.10;;;;;;5080368;28;19925;-83
2022/08/06 10:49:58;;;;;;;;;;;19.60;48.70;;;;;;5081594;28;19995;-84
2022/08/06 10:52:23;;;;;;;;;;;19.60;47.40;;;;;;5093310;28;19927;-84
2022/08/06 10:54:50;;;;;;;;;;;19.60;47.90;;;;;;5073708;28;19921;-84
2022/08/06 10:57:15;;;;;;;;;;;19.90;49.60;;;;;;5059340;28;20035;-83
2022/08/06 10:59:42;;;;;;;;;;;20.40;44.30;;;;;;5069303;28;19951;-83
2022/08/06 11:02:22;;;;;;;;;;;20.40;45.00;;;;;;5058784;28;19920;-81
2022/08/06 11:04:53;;;;;;;;;;;20.50;47.20;;;;;;5069479;28;19944;-83
2022/08/06 11:07:34;;;;;;;;;;;20.20;47.30;;;;;;5086937;28;19913;-81
2022/08/06 11:10:15;;;;;;;;;;;20.30;47.90;;;;;;5060007;28;20379;-81
2022/08/06 11:12:52;;;;;;;;;;;20.40;46.40;;;;;;5072855;28;19932;-79
2022/08/06 11:15:21;;;;;;;;;;;20.50;45.80;;;;;;5066874;28;19916;-80
2022/08/06 11:17:48;;;;;;;;;;;20.40;46.40;;;;;;5072973;28;19913;-79
2022/08/06 11:20:31;;;;;;;;;;;20.60;43.90;;;;;;5072515;28;20302;-80
2022/08/06 11:23:00;;;;;;;;;;;20.50;45.00;;;;;;5069725;28;19913;-80
2022/08/06 11:25:38;;;;;;;;;;;20.60;45.40;;;;;;5086413;28;19916;-80
2022/08/06 11:28:04;;;;;;;;;;;20.40;45.90;;;;;;5080139;28;20007;-79
2022/08/06 11:30:59;;;;;;;;;;;20.10;46.80;;;;;;5060372;28;19954;-79
2022/08/06 11:33:34;;;;;;;;;;;20.00;46.20;;;;;;5036009;28;19924;-79
2022/08/06 11:36:00;;;;;;;;;;;19.80;46.40;;;;;;5076023;28;19937;-80
2022/08/06 11:38:47;;;;;;;;;;;19.50;48.40;;;;;;5072680;28;20291;-80
2022/08/06 11:41:16;;;;;;;;;;;19.60;47.30;;;;;;5080889;28;19920;-80
2022/08/06 11:43:41;;;;;;;;;;;19.60;47.50;;;;;;5070923;28;19924;-80
2022/08/06 11:46:22;;;;;;;;;;;19.60;47.40;;;;;;5073772;28;19916;-80
2022/08/06 11:49:02;;;;;;;;;;;19.70;48.00;;;;;;5071474;28;19917;-79
2022/08/06 11:51:40;;;;;;;;;;;20.00;46.00;;;;;;5063236;28;20360;-79
2022/08/06 11:54:16;;;;;;;;;;;20.10;46.30;;;;;;5077227;28;19995;-79
2022/08/06 11:57:06;;;;;;;;;;;20.30;45.60;;;;;;5099983;28;20153;-79
2022/08/06 11:59:33;;;;;;;;;;;20.30;44.80;;;;;;5086684;28;19912;-80
2022/08/06 12:02:00;;;;;;;;;;;20.30;43.90;;;;;;5050445;28;19916;-80
2022/08/06 12:04:47;;;;;;;;;;;20.40;43.40;;;;;;5055435;28;19927;-80
2022/08/06 12:07:18;;;;;;;;;;;20.60;42.50;;;;;;5070339;28;19920;-80
2022/08/06 12:09:44;;;;;;;;;;;20.80;42.70;;;;;;5049777;28;19917;-80
2022/08/06 12:12:28;;;;;;;;;;;20.70;44.50;;;;;;5085089;28;19920;-82
2022/08/06 12:14:55;;;;;;;;;;;20.80;44.90;;;;;;5063581;28;19912;-80
2022/08/06 12:17:24;;;;;;;;;;;21.10;41.90;;;;;;5069575;28;19918;-82
2022/08/06 12:20:10;;;;;;;;;;;21.30;42.50;;;;;;5053922;28;19917;-82
2022/08/06 12:22:35;;;;;;;;;;;21.50;40.80;;;;;;5097978;22;19967;-83
2022/08/06 12:25:06;;;;;;;;;;;21.40;42.80;;;;;;5065310;28;19913;-84
2022/08/06 12:27:33;;;;;;;;;;;21.20;43.10;;;;;;5080640;28;19916;-83
2022/08/06 12:29:59;;;;;;;;;;;21.20;42.40;;;;;;5089147;28;19938;-84
2022/08/06 12:32:28;;;;;;;;;;;21.00;43.80;;;;;;5059567;28;19937;-84
2022/08/06 12:34:55;;;;;;;;;;;20.90;45.50;;;;;;5063512;28;19935;-84
2022/08/06 12:37:31;;;;;;;;;;;21.00;44.90;;;;;;5043801;28;19913;-85
2022/08/06 12:42:41;;;;;;;;;;;21.30;45.40;;;;;;5063498;28;19923;-85
2022/08/06 12:45:08;;;;;;;;;;;21.40;43.80;;;;;;5042559;28;20340;-86
2022/08/06 12:47:34;;;;;;;;;;;21.20;42.40;;;;;;5042197;28;20543;-87
2022/08/06 12:50:18;;;;;;;;;;;21.10;44.10;;;;;;5063278;28;19923;-86
2022/08/06 12:52:44;;;;;;;;;;;21.00;43.50;;;;;;5052039;28;19916;-87
2022/08/06 12:55:16;;;;;;;;;;;20.80;43.70;;;;;;5047689;28;20519;-88
2022/08/06 12:57:42;;;;;;;;;;;20.60;43.30;;;;;;5052711;28;19979;-85
2022/08/06 13:00:08;;;;;;;;;;;20.60;44.20;;;;;;5057977;28;19948;-85
2022/08/06 13:02:34;;;;;;;;;;;20.70;43.00;;;;;;5070655;28;19964;-87
2022/08/06 13:04:59;;;;;;;;;;;20.80;42.00;;;;;;5063944;28;19935;-81
2022/08/06 13:07:25;;;;;;;;;;;20.80;42.80;;;;;;5069324;28;19916;-90
2022/08/06 13:09:51;;;;;;;;;;;20.90;42.30;;;;;;5046277;28;19913;-85
2022/08/06 13:12:24;;;;;;;;;;;20.90;42.90;;;;;;5063433;28;20066;-88
2022/08/06 13:14:52;;;;;;;;;;;20.80;43.60;;;;;;5046419;28;19912;-92
2022/08/06 13:17:18;;;;;;;;;;;20.90;43.40;;;;;;5047827;28;19912;-92
2022/08/06 13:19:54;;;;;;;;;;;21.20;42.20;;;;;;5055536;28;19912;-93
2022/08/06 13:22:21;;;;;;;;;;;21.40;41.40;;;;;;5062556;28;19925;-92
2022/08/06 13:24:46;;;;;;;;;;;21.50;40.00;;;;;;5067174;28;19920;-91
2022/08/06 13:27:12;;;;;;;;;;;21.50;41.70;;;;;;5052091;28;20478;-92
2022/08/06 13:29:37;;;;;;;;;;;21.50;39.50;;;;;;5054212;28;19913;-91
2022/08/06 13:32:10;;;;;;;;;;;21.50;40.30;;;;;;5050413;28;19973;-92
2022/08/06 13:34:53;;;;;;;;;;;21.50;39.60;;;;;;5051483;28;19912;-92
2022/08/06 13:37:46;;;;;;;;;;;21.40;40.10;;;;;;5043324;28;19917;-91
2022/08/06 13:40:12;;;;;;;;;;;21.50;39.80;;;;;;5030791;28;20551;-92
2022/08/06 13:42:49;;;;;;;;;;;21.60;40.00;;;;;;5047484;28;19913;-91
2022/08/06 13:45:19;;;;;;;;;;;21.50;40.20;;;;;;5070863;28;19912;-92
2022/08/06 13:47:44;;;;;;;;;;;21.40;40.80;;;;;;5049277;28;19913;-91
2022/08/06 13:50:10;;;;;;;;;;;21.30;41.80;;;;;;5054111;28;20003;-91
2022/08/06 13:52:41;;;;;;;;;;;21.60;41.50;;;;;;5059729;28;19971;-91
2022/08/06 13:55:07;;;;;;;;;;;21.60;42.00;;;;;;5047371;28;19913;-92
2022/08/06 13:57:35;;;;;;;;;;;21.60;42.20;;;;;;5053076;28;19916;-92
2022/08/06 14:00:01;;;;;;;;;;;21.50;40.90;;;;;;5063560;28;19970;-93
2022/08/06 14:02:55;;;;;;;;;;;21.50;41.30;;;;;;5057676;28;20011;-94
2022/08/06 14:05:21;;;;;;;;;;;21.60;40.00;;;;;;5054249;28;19958;-88
2022/08/06 14:07:47;;;;;;;;;;;21.80;40.00;;;;;;5061236;28;20007;-94
2022/08/06 14:10:13;;;;;;;;;;;21.80;40.40;;;;;;5052610;28;19913;-88
2022/08/06 14:12:39;;;;;;;;;;;21.80;42.30;;;;;;5050856;28;20485;-89
2022/08/06 14:15:04;;;;;;;;;;;21.70;42.00;;;;;;5050202;28;19912;-90
2022/08/06 14:17:30;;;;;;;;;;;21.80;43.00;;;;;;5050919;28;19913;-89
2022/08/06 14:19:55;;;;;;;;;;;22.00;43.70;;;;;;5058618;28;20454;-90
2022/08/06 14:22:21;;;;;;;;;;;22.20;40.80;;;;;;5054468;28;19916;-87
2022/08/06 14:24:46;;;;;;;;;;;22.20;40.40;;;;;;5051694;28;19913;-86
2022/08/06 14:27:12;;;;;;;;;;;22.00;42.30;;;;;;5052575;28;19980;-85
2022/08/06 14:29:38;;;;;;;;;;;22.10;43.30;;;;;;5067638;28;19913;-85
2022/08/06 14:32:04;;;;;;;;;;;22.20;40.50;;;;;;5054760;28;19916;-83
2022/08/06 14:34:29;;;;;;;;;;;22.00;42.00;;;;;;5062108;28;19916;-84